sensor_id;sensor_type;location;lat;lon;timestamp;temperature;humidity
6690;DHT22;3382;51.576;8.076;2023-03-13T00:01:17;12.30;99.90
6690;DHT22;3382;51.576;8.076;2023-03-13T00:03:43;12.30;99.90
6690;DHT22;3382;51.576;8.076;2023-03-13T00:06:09;12.30;99.90
6690;DHT22;3382;51.576;8.076;2023-03-13T00:08:35;12.30;99.90
6690;DHT22;3382;51.576;8.076;2023-03-13T00:11:09;12.30;99.90
6690;DHT22;3382;51.576;8.076;2023-03-13T00:13:35;12.30;99.90
6690;DHT22;3382;51.576;8.076;2023-03-13T00:16:01;12.40;99.90
6690;DHT22;3382;51.576;8.076;2023-03-13T00:18:27;12.40;99.90
6690;DHT22;3382;51.576;8.076;2023-03-13T00:21:01;12.40;99.90
6690;DHT22;3382;51.576;8.076;2023-03-13T00:23:28;12.40;99.90
6690;DHT22;3382;51.576;8.076;2023-03-13T00:25:58;12.40;99.90
6690;DHT22;3382;51.576;8.076;2023-03-13T00:28:24;12.50;99.90
6690;DHT22;3382;51.576;8.076;2023-03-13T00:31:06;12.40;99.90
6690;DHT22;3382;51.576;8.076;2023-03-13T00:33:33;12.40;99.90
6690;DHT22;3382;51.576;8.076;2023-03-13T00:36:00;12.40;99.90
6690;DHT22;3382;51.576;8.076;2023-03-13T00:38:28;12.40;99.90
6690;DHT22;3382;51.576;8.076;2023-03-13T00:41:08;12.40;99.90
6690;DHT22;3382;51.576;8.076;2023-03-13T00:43:36;12.30;99.90
6690;DHT22;3382;51.576;8.076;2023-03-13T00:46:02;12.50;99.90
6690;DHT22;3382;51.576;8.076;2023-03-13T00:48:27;12.50;99.90
6690;DHT22;3382;51.576;8.076;2023-03-13T00:50:53;12.60;99.90
6690;DHT22;3382;51.576;8.076;2023-03-13T00:53:19;12.80;99.90
6690;DHT22;3382;51.576;8.076;2023-03-13T00:56:02;12.60;99.90
6690;DHT22;3382;51.576;8.076;2023-03-13T00:58:33;12.60;99.90
6690;DHT22;3382;51.576;8.076;2023-03-13T01:01:14;12.60;99.90
6690;DHT22;3382;51.576;8.076;2023-03-13T01:03:42;12.60;99.90
6690;DHT22;3382;51.576;8.076;2023-03-13T01:06:10;12.70;99.90
6690;DHT22;3382;51.576;8.076;2023-03-13T01:08:36;12.70;99.90
6690;DHT22;3382;51.576;8.076;2023-03-13T01:11:07;12.70;99.90
6690;DHT22;3382;51.576;8.076;2023-03-13T01:13:33;12.70;99.90
6690;DHT22;3382;51.576;8.076;2023-03-13T01:16:04;12.70;99.90
6690;DHT22;3382;51.576;8.076;2023-03-13T01:18:30;12.70;99.90
6690;DHT22;3382;51.576;8.076;2023-03-13T01:20:56;12.70;99.90
6690;DHT22;3382;51.576;8.076;2023-03-13T01:23:21;12.70;99.90
6690;DHT22;3382;51.576;8.076;2023-03-13T01:25:47;12.80;99.90
6690;DHT22;3382;51.576;8.076;2023-03-13T01:28:13;12.70;99.90
6690;DHT22;3382;51.576;8.076;2023-03-13T01:30:38;12.80;99.90
6690;DHT22;3382;51.576;8.076;2023-03-13T01:33:04;12.80;99.90
6690;DHT22;3382;51.576;8.076;2023-03-13T01:35:30;12.80;99.90
6690;DHT22;3382;51.576;8.076;2023-03-13T01:37:55;12.70;99.90
6690;DHT22;3382;51.576;8.076;2023-03-13T01:40:21;12.60;99.90
6690;DHT22;3382;51.576;8.076;2023-03-13T01:46:35;13.10;99.90
6690;DHT22;3382;51.576;8.076;2023-03-13T01:48:36;12.60;99.90
6690;DHT22;3382;51.576;8.076;2023-03-13T01:51:07;12.60;99.90
6690;DHT22;3382;51.576;8.076;2023-03-13T01:53:35;12.50;99.90
6690;DHT22;3382;51.576;8.076;2023-03-13T01:56:05;12.60;99.90
6690;DHT22;3382;51.576;8.076;2023-03-13T01:58:32;12.60;99.90
6690;DHT22;3382;51.576;8.076;2023-03-13T02:00:58;12.50;99.90
6690;DHT22;3382;51.576;8.076;2023-03-13T02:03:26;12.50;99.90
6690;DHT22;3382;51.576;8.076;2023-03-13T02:05:54;12.50;99.90
6690;DHT22;3382;51.576;8.076;2023-03-13T02:08:24;12.50;99.90
6690;DHT22;3382;51.576;8.076;2023-03-13T02:10:55;12.50;99.90
6690;DHT22;3382;51.576;8.076;2023-03-13T02:13:23;12.20;99.90
6690;DHT22;3382;51.576;8.076;2023-03-13T02:15:50;12.40;99.90
6690;DHT22;3382;51.576;8.076;2023-03-13T02:18:15;12.50;99.90
6690;DHT22;3382;51.576;8.076;2023-03-13T02:20:41;12.50;99.90
6690;DHT22;3382;51.576;8.076;2023-03-13T02:28:22;12.50;99.90
6690;DHT22;3382;51.576;8.076;2023-03-13T02:30:50;12.60;99.90
6690;DHT22;3382;51.576;8.076;2023-03-13T02:33:19;12.50;99.90
6690;DHT22;3382;51.576;8.076;2023-03-13T02:35:46;12.50;99.90
6690;DHT22;3382;51.576;8.076;2023-03-13T02:38:16;12.50;99.90
6690;DHT22;3382;51.576;8.076;2023-03-13T02:40:45;12.60;99.90
6690;DHT22;3382;51.576;8.076;2023-03-13T02:43:20;12.60;99.90
6690;DHT22;3382;51.576;8.076;2023-03-13T02:48:55;12.60;99.90
6690;DHT22;3382;51.576;8.076;2023-03-13T02:51:27;12.60;99.90
6690;DHT22;3382;51.576;8.076;2023-03-13T02:53:57;12.60;99.90
6690;DHT22;3382;51.576;8.076;2023-03-13T02:56:25;12.80;99.90
6690;DHT22;3382;51.576;8.076;2023-03-13T02:58:51;12.60;99.90
6690;DHT22;3382;51.576;8.076;2023-03-13T03:01:17;12.80;99.90
6690;DHT22;3382;51.576;8.076;2023-03-13T03:03:42;12.70;99.90
6690;DHT22;3382;51.576;8.076;2023-03-13T03:06:11;12.80;99.90
6690;DHT22;3382;51.576;8.076;2023-03-13T03:08:36;12.70;99.90
6690;DHT22;3382;51.576;8.076;2023-03-13T03:11:05;12.70;99.90
6690;DHT22;3382;51.576;8.076;2023-03-13T03:13:31;12.70;99.90
6690;DHT22;3382;51.576;8.076;2023-03-13T03:15:58;12.70;99.90
6690;DHT22;3382;51.576;8.076;2023-03-13T03:18:23;12.70;99.90
6690;DHT22;3382;51.576;8.076;2023-03-13T03:20:49;12.70;99.90
6690;DHT22;3382;51.576;8.076;2023-03-13T03:23:15;13.10;99.90
6690;DHT22;3382;51.576;8.076;2023-03-13T03:25:40;12.80;99.90
6690;DHT22;3382;51.576;8.076;2023-03-13T03:28:06;12.70;99.90
6690;DHT22;3382;51.576;8.076;2023-03-13T03:30:31;12.70;99.90
6690;DHT22;3382;51.576;8.076;2023-03-13T03:32:57;12.70;99.90
6690;DHT22;3382;51.576;8.076;2023-03-13T03:35:23;12.70;99.90
6690;DHT22;3382;51.576;8.076;2023-03-13T03:37:48;13.00;99.90
6690;DHT22;3382;51.576;8.076;2023-03-13T03:40:17;12.70;99.90
6690;DHT22;3382;51.576;8.076;2023-03-13T03:42:42;12.60;99.90
6690;DHT22;3382;51.576;8.076;2023-03-13T03:45:08;12.60;99.90
6690;DHT22;3382;51.576;8.076;2023-03-13T03:47:34;12.60;99.90
6690;DHT22;3382;51.576;8.076;2023-03-13T03:49:59;12.60;99.90
6690;DHT22;3382;51.576;8.076;2023-03-13T03:52:25;12.70;99.90
6690;DHT22;3382;51.576;8.076;2023-03-13T03:54:50;12.70;99.90
6690;DHT22;3382;51.576;8.076;2023-03-13T03:57:16;12.70;99.90
6690;DHT22;3382;51.576;8.076;2023-03-13T03:59:42;12.70;99.90
6690;DHT22;3382;51.576;8.076;2023-03-13T04:02:07;12.80;99.90
6690;DHT22;3382;51.576;8.076;2023-03-13T04:04:33;12.80;99.90
6690;DHT22;3382;51.576;8.076;2023-03-13T04:06:58;13.00;99.90
6690;DHT22;3382;51.576;8.076;2023-03-13T04:09:24;13.00;99.90
6690;DHT22;3382;51.576;8.076;2023-03-13T04:11:49;12.90;99.90
6690;DHT22;3382;51.576;8.076;2023-03-13T04:14:15;12.90;99.90
6690;DHT22;3382;51.576;8.076;2023-03-13T04:16:41;12.80;99.90
6690;DHT22;3382;51.576;8.076;2023-03-13T04:19:06;12.90;99.90
6690;DHT22;3382;51.576;8.076;2023-03-13T04:21:32;12.90;99.90
6690;DHT22;3382;51.576;8.076;2023-03-13T04:23:58;13.00;99.90
6690;DHT22;3382;51.576;8.076;2023-03-13T04:26:23;13.00;99.90
6690;DHT22;3382;51.576;8.076;2023-03-13T04:28:49;13.10;99.90
6690;DHT22;3382;51.576;8.076;2023-03-13T04:31:14;13.10;99.90
6690;DHT22;3382;51.576;8.076;2023-03-13T04:33:40;13.10;99.90
6690;DHT22;3382;51.576;8.076;2023-03-13T04:36:06;13.20;99.90
6690;DHT22;3382;51.576;8.076;2023-03-13T04:38:31;13.10;99.90
6690;DHT22;3382;51.576;8.076;2023-03-13T04:40:57;13.20;99.90
6690;DHT22;3382;51.576;8.076;2023-03-13T04:43:23;13.10;99.90
6690;DHT22;3382;51.576;8.076;2023-03-13T04:45:51;13.20;99.90
6690;DHT22;3382;51.576;8.076;2023-03-13T04:48:19;13.20;99.90
6690;DHT22;3382;51.576;8.076;2023-03-13T04:50:46;13.30;99.90
6690;DHT22;3382;51.576;8.076;2023-03-13T04:53:12;13.30;99.90
6690;DHT22;3382;51.576;8.076;2023-03-13T04:55:38;13.30;99.90
6690;DHT22;3382;51.576;8.076;2023-03-13T04:58:03;13.40;99.90
6690;DHT22;3382;51.576;8.076;2023-03-13T05:00:29;13.40;99.90
6690;DHT22;3382;51.576;8.076;2023-03-13T05:02:55;13.40;99.90
6690;DHT22;3382;51.576;8.076;2023-03-13T05:05:20;13.50;99.90
6690;DHT22;3382;51.576;8.076;2023-03-13T05:07:46;13.50;99.90
6690;DHT22;3382;51.576;8.076;2023-03-13T05:10:11;13.80;99.90
6690;DHT22;3382;51.576;8.076;2023-03-13T05:12:37;14.00;99.90
6690;DHT22;3382;51.576;8.076;2023-03-13T05:15:03;14.20;99.90
6690;DHT22;3382;51.576;8.076;2023-03-13T05:17:28;14.50;99.90
6690;DHT22;3382;51.576;8.076;2023-03-13T05:19:54;14.60;99.90
6690;DHT22;3382;51.576;8.076;2023-03-13T05:22:20;14.70;99.90
6690;DHT22;3382;51.576;8.076;2023-03-13T05:24:45;14.70;99.90
6690;DHT22;3382;51.576;8.076;2023-03-13T05:27:11;14.90;99.90
6690;DHT22;3382;51.576;8.076;2023-03-13T05:29:36;15.00;99.90
6690;DHT22;3382;51.576;8.076;2023-03-13T05:32:02;15.10;99.90
6690;DHT22;3382;51.576;8.076;2023-03-13T05:34:28;15.20;99.90
6690;DHT22;3382;51.576;8.076;2023-03-13T05:36:53;15.10;99.90
6690;DHT22;3382;51.576;8.076;2023-03-13T05:39:19;15.20;99.90
6690;DHT22;3382;51.576;8.076;2023-03-13T05:41:44;15.10;99.90
6690;DHT22;3382;51.576;8.076;2023-03-13T05:44:10;15.30;99.90
6690;DHT22;3382;51.576;8.076;2023-03-13T05:46:35;15.40;99.90
6690;DHT22;3382;51.576;8.076;2023-03-13T05:49:01;15.20;99.90
6690;DHT22;3382;51.576;8.076;2023-03-13T05:51:26;15.20;99.90
6690;DHT22;3382;51.576;8.076;2023-03-13T05:53:52;15.30;99.90
6690;DHT22;3382;51.576;8.076;2023-03-13T05:56:18;15.30;99.90
6690;DHT22;3382;51.576;8.076;2023-03-13T05:58:43;15.30;99.90
6690;DHT22;3382;51.576;8.076;2023-03-13T06:01:11;15.20;99.90
6690;DHT22;3382;51.576;8.076;2023-03-13T06:03:37;15.20;99.90
6690;DHT22;3382;51.576;8.076;2023-03-13T06:06:02;15.40;99.90
6690;DHT22;3382;51.576;8.076;2023-03-13T06:08:28;15.60;99.90
6690;DHT22;3382;51.576;8.076;2023-03-13T06:10:54;15.40;99.90
6690;DHT22;3382;51.576;8.076;2023-03-13T06:13:19;15.20;99.90
6690;DHT22;3382;51.576;8.076;2023-03-13T06:15:53;15.60;99.90
6690;DHT22;3382;51.576;8.076;2023-03-13T06:18:19;15.90;99.90
6690;DHT22;3382;51.576;8.076;2023-03-13T06:20:44;15.60;99.90
6690;DHT22;3382;51.576;8.076;2023-03-13T06:23:10;15.50;99.90
6690;DHT22;3382;51.576;8.076;2023-03-13T06:25:36;15.50;99.90
6690;DHT22;3382;51.576;8.076;2023-03-13T06:28:03;15.80;99.90
6690;DHT22;3382;51.576;8.076;2023-03-13T06:30:28;16.10;99.90
6690;DHT22;3382;51.576;8.076;2023-03-13T06:32:54;16.20;99.90
6690;DHT22;3382;51.576;8.076;2023-03-13T06:35:19;16.50;99.90
6690;DHT22;3382;51.576;8.076;2023-03-13T06:37:45;17.20;99.90
6690;DHT22;3382;51.576;8.076;2023-03-13T06:40:11;17.50;99.90
6690;DHT22;3382;51.576;8.076;2023-03-13T06:42:37;17.80;99.90
6690;DHT22;3382;51.576;8.076;2023-03-13T06:45:03;18.00;99.90
6690;DHT22;3382;51.576;8.076;2023-03-13T06:47:32;18.00;99.90
6690;DHT22;3382;51.576;8.076;2023-03-13T06:49:57;17.90;99.90
6690;DHT22;3382;51.576;8.076;2023-03-13T06:52:23;18.10;99.90
6690;DHT22;3382;51.576;8.076;2023-03-13T06:54:49;18.00;99.90
6690;DHT22;3382;51.576;8.076;2023-03-13T06:57:15;17.70;99.90
6690;DHT22;3382;51.576;8.076;2023-03-13T06:59:40;17.70;99.90
6690;DHT22;3382;51.576;8.076;2023-03-13T07:02:09;18.20;99.90
6690;DHT22;3382;51.576;8.076;2023-03-13T07:04:35;18.40;99.90
6690;DHT22;3382;51.576;8.076;2023-03-13T07:07:01;18.10;99.90
6690;DHT22;3382;51.576;8.076;2023-03-13T07:09:27;18.10;99.90
6690;DHT22;3382;51.576;8.076;2023-03-13T07:11:52;18.60;99.90
6690;DHT22;3382;51.576;8.076;2023-03-13T07:14:18;19.10;99.90
6690;DHT22;3382;51.576;8.076;2023-03-13T07:16:44;19.30;99.90
6690;DHT22;3382;51.576;8.076;2023-03-13T07:19:10;19.60;99.90
6690;DHT22;3382;51.576;8.076;2023-03-13T07:21:35;19.70;99.90
6690;DHT22;3382;51.576;8.076;2023-03-13T07:24:01;19.90;99.90
6690;DHT22;3382;51.576;8.076;2023-03-13T07:26:27;20.00;99.90
6690;DHT22;3382;51.576;8.076;2023-03-13T07:28:53;20.10;99.90
6690;DHT22;3382;51.576;8.076;2023-03-13T07:31:20;20.20;99.90
6690;DHT22;3382;51.576;8.076;2023-03-13T07:33:46;20.20;99.90
6690;DHT22;3382;51.576;8.076;2023-03-13T07:36:13;20.30;99.90
6690;DHT22;3382;51.576;8.076;2023-03-13T07:38:39;20.30;99.90
6690;DHT22;3382;51.576;8.076;2023-03-13T07:41:05;20.40;99.90
6690;DHT22;3382;51.576;8.076;2023-03-13T07:43:31;20.40;99.90
6690;DHT22;3382;51.576;8.076;2023-03-13T07:46:03;20.40;99.90
6690;DHT22;3382;51.576;8.076;2023-03-13T07:48:31;20.50;99.90
6690;DHT22;3382;51.576;8.076;2023-03-13T07:50:58;20.50;99.90
6690;DHT22;3382;51.576;8.076;2023-03-13T07:53:24;20.50;99.90
6690;DHT22;3382;51.576;8.076;2023-03-13T07:55:55;20.50;99.90
6690;DHT22;3382;51.576;8.076;2023-03-13T07:58:21;20.50;99.90
6690;DHT22;3382;51.576;8.076;2023-03-13T08:00:47;20.50;99.90
6690;DHT22;3382;51.576;8.076;2023-03-13T08:03:13;20.50;99.90
6690;DHT22;3382;51.576;8.076;2023-03-13T08:05:39;20.40;99.90
6690;DHT22;3382;51.576;8.076;2023-03-13T08:08:05;20.50;99.90
6690;DHT22;3382;51.576;8.076;2023-03-13T08:10:31;20.40;99.90
6690;DHT22;3382;51.576;8.076;2023-03-13T08:12:56;20.40;99.90
6690;DHT22;3382;51.576;8.076;2023-03-13T08:15:22;20.40;99.90
6690;DHT22;3382;51.576;8.076;2023-03-13T08:17:51;20.40;99.90
6690;DHT22;3382;51.576;8.076;2023-03-13T08:20:17;20.40;99.90
6690;DHT22;3382;51.576;8.076;2023-03-13T08:22:46;20.40;99.90
6690;DHT22;3382;51.576;8.076;2023-03-13T08:25:12;20.40;99.90
6690;DHT22;3382;51.576;8.076;2023-03-13T08:27:38;20.40;99.90
6690;DHT22;3382;51.576;8.076;2023-03-13T08:30:04;20.40;99.90
6690;DHT22;3382;51.576;8.076;2023-03-13T08:32:34;20.40;99.90
6690;DHT22;3382;51.576;8.076;2023-03-13T08:34:59;20.50;99.90
6690;DHT22;3382;51.576;8.076;2023-03-13T08:37:25;20.50;99.90
6690;DHT22;3382;51.576;8.076;2023-03-13T08:39:50;20.40;99.90
6690;DHT22;3382;51.576;8.076;2023-03-13T08:42:18;20.50;99.90
6690;DHT22;3382;51.576;8.076;2023-03-13T08:44:44;20.50;99.90
6690;DHT22;3382;51.576;8.076;2023-03-13T08:47:09;20.50;99.90
6690;DHT22;3382;51.576;8.076;2023-03-13T08:49:35;20.60;99.90
6690;DHT22;3382;51.576;8.076;2023-03-13T08:52:03;20.60;99.90
6690;DHT22;3382;51.576;8.076;2023-03-13T08:54:28;20.60;99.90
6690;DHT22;3382;51.576;8.076;2023-03-13T08:56:54;20.50;99.90
6690;DHT22;3382;51.576;8.076;2023-03-13T08:59:20;20.60;99.90
6690;DHT22;3382;51.576;8.076;2023-03-13T09:01:45;20.60;99.90
6690;DHT22;3382;51.576;8.076;2023-03-13T09:04:11;20.60;99.90
6690;DHT22;3382;51.576;8.076;2023-03-13T09:06:37;20.60;99.90
6690;DHT22;3382;51.576;8.076;2023-03-13T09:09:05;20.60;99.90
6690;DHT22;3382;51.576;8.076;2023-03-13T09:11:31;20.60;99.90
6690;DHT22;3382;51.576;8.076;2023-03-13T09:13:57;20.60;99.90
6690;DHT22;3382;51.576;8.076;2023-03-13T09:16:26;20.60;99.90
6690;DHT22;3382;51.576;8.076;2023-03-13T09:18:52;20.90;99.90
6690;DHT22;3382;51.576;8.076;2023-03-13T09:21:20;20.80;99.90
6690;DHT22;3382;51.576;8.076;2023-03-13T09:23:46;20.90;99.90
6690;DHT22;3382;51.576;8.076;2023-03-13T09:26:13;20.80;99.90
6690;DHT22;3382;51.576;8.076;2023-03-13T09:28:39;20.80;99.90
6690;DHT22;3382;51.576;8.076;2023-03-13T09:31:11;20.80;99.90
6690;DHT22;3382;51.576;8.076;2023-03-13T09:33:38;20.70;99.90
6690;DHT22;3382;51.576;8.076;2023-03-13T09:36:04;20.70;99.90
6690;DHT22;3382;51.576;8.076;2023-03-13T09:38:30;20.70;99.90
6690;DHT22;3382;51.576;8.076;2023-03-13T09:41:02;20.60;99.90
6690;DHT22;3382;51.576;8.076;2023-03-13T09:43:41;20.60;99.90
6690;DHT22;3382;51.576;8.076;2023-03-13T09:46:15;20.60;99.90
6690;DHT22;3382;51.576;8.076;2023-03-13T09:48:46;20.60;99.90
6690;DHT22;3382;51.576;8.076;2023-03-13T09:51:29;20.60;99.90
6690;DHT22;3382;51.576;8.076;2023-03-13T09:54:18;20.60;99.90
6690;DHT22;3382;51.576;8.076;2023-03-13T10:00:09;20.60;99.90
6690;DHT22;3382;51.576;8.076;2023-03-13T10:02:38;20.70;99.90
6690;DHT22;3382;51.576;8.076;2023-03-13T10:07:42;20.60;99.90
6690;DHT22;3382;51.576;8.076;2023-03-13T10:10:32;20.30;99.90
6690;DHT22;3382;51.576;8.076;2023-03-13T10:13:08;20.60;99.90
6690;DHT22;3382;51.576;8.076;2023-03-13T10:18:57;20.70;99.90
6690;DHT22;3382;51.576;8.076;2023-03-13T10:21:26;20.70;99.90
6690;DHT22;3382;51.576;8.076;2023-03-13T10:26:49;20.80;99.90
6690;DHT22;3382;51.576;8.076;2023-03-13T10:29:23;21.00;99.90
6690;DHT22;3382;51.576;8.076;2023-03-13T10:32:12;21.20;99.90
6690;DHT22;3382;51.576;8.076;2023-03-13T10:37:14;21.90;99.90
6690;DHT22;3382;51.576;8.076;2023-03-13T10:39:39;22.10;99.90
6690;DHT22;3382;51.576;8.076;2023-03-13T10:42:15;22.30;99.90
6690;DHT22;3382;51.576;8.076;2023-03-13T10:44:43;22.30;99.90
6690;DHT22;3382;51.576;8.076;2023-03-13T10:47:12;22.30;99.90
6690;DHT22;3382;51.576;8.076;2023-03-13T10:49:47;22.30;99.90
6690;DHT22;3382;51.576;8.076;2023-03-13T10:52:32;22.20;99.90
6690;DHT22;3382;51.576;8.076;2023-03-13T10:55:06;22.10;99.90
6690;DHT22;3382;51.576;8.076;2023-03-13T10:57:35;21.90;99.90
6690;DHT22;3382;51.576;8.076;2023-03-13T11:00:21;21.90;99.90
6690;DHT22;3382;51.576;8.076;2023-03-13T11:02:47;21.70;99.90
6690;DHT22;3382;51.576;8.076;2023-03-13T11:05:40;21.70;99.90
6690;DHT22;3382;51.576;8.076;2023-03-13T11:13:32;21.40;99.90
6690;DHT22;3382;51.576;8.076;2023-03-13T11:21:27;21.20;99.90
6690;DHT22;3382;51.576;8.076;2023-03-13T11:24:06;21.30;99.90
6690;DHT22;3382;51.576;8.076;2023-03-13T11:26:37;21.30;99.90
6690;DHT22;3382;51.576;8.076;2023-03-13T11:29:18;21.20;99.90
6690;DHT22;3382;51.576;8.076;2023-03-13T11:31:50;21.10;99.90
6690;DHT22;3382;51.576;8.076;2023-03-13T11:34:37;21.00;99.90
6690;DHT22;3382;51.576;8.076;2023-03-13T11:37:13;21.20;99.90
6690;DHT22;3382;51.576;8.076;2023-03-13T11:39:58;21.20;99.90
6690;DHT22;3382;51.576;8.076;2023-03-13T11:42:41;21.30;99.90
6690;DHT22;3382;51.576;8.076;2023-03-13T11:50:57;21.20;99.90
6690;DHT22;3382;51.576;8.076;2023-03-13T11:56:41;21.10;99.90
6690;DHT22;3382;51.576;8.076;2023-03-13T12:01:54;21.10;99.90
6690;DHT22;3382;51.576;8.076;2023-03-13T12:04:34;21.00;99.90
6690;DHT22;3382;51.576;8.076;2023-03-13T12:07:05;21.10;99.90
6690;DHT22;3382;51.576;8.076;2023-03-13T12:09:36;21.10;99.90
6690;DHT22;3382;51.576;8.076;2023-03-13T12:20:05;21.10;99.90
6690;DHT22;3382;51.576;8.076;2023-03-13T12:25:33;21.20;99.90
6690;DHT22;3382;51.576;8.076;2023-03-13T12:34:12;21.20;99.90
6690;DHT22;3382;51.576;8.076;2023-03-13T12:44:42;21.10;99.90
6690;DHT22;3382;51.576;8.076;2023-03-13T12:47:27;21.20;99.90
6690;DHT22;3382;51.576;8.076;2023-03-13T12:58:45;20.90;99.90
6690;DHT22;3382;51.576;8.076;2023-03-13T13:01:24;20.80;99.90
6690;DHT22;3382;51.576;8.076;2023-03-13T13:03:58;20.90;99.90
6690;DHT22;3382;51.576;8.076;2023-03-13T13:06:27;21.00;99.90
6690;DHT22;3382;51.576;8.076;2023-03-13T13:09:07;21.10;99.90
6690;DHT22;3382;51.576;8.076;2023-03-13T13:16:49;20.80;99.90
6690;DHT22;3382;51.576;8.076;2023-03-13T13:29:59;20.70;99.90
6690;DHT22;3382;51.576;8.076;2023-03-13T13:32:55;20.70;99.90
6690;DHT22;3382;51.576;8.076;2023-03-13T13:35:39;20.80;99.90
6690;DHT22;3382;51.576;8.076;2023-03-13T13:43:43;20.80;99.90
6690;DHT22;3382;51.576;8.076;2023-03-13T13:46:30;20.80;99.90
6690;DHT22;3382;51.576;8.076;2023-03-13T13:51:36;21.00;99.90
6690;DHT22;3382;51.576;8.076;2023-03-13T13:57:05;21.00;99.90
6690;DHT22;3382;51.576;8.076;2023-03-13T13:59:48;21.00;99.90
6690;DHT22;3382;51.576;8.076;2023-03-13T14:02:17;21.10;99.90
6690;DHT22;3382;51.576;8.076;2023-03-13T14:10:20;21.40;99.90
6690;DHT22;3382;51.576;8.076;2023-03-13T14:12:51;21.30;99.90
6690;DHT22;3382;51.576;8.076;2023-03-13T14:15:23;21.20;99.90
6690;DHT22;3382;51.576;8.076;2023-03-13T14:17:58;21.10;99.90
6690;DHT22;3382;51.576;8.076;2023-03-13T14:20:26;21.10;99.90
6690;DHT22;3382;51.576;8.076;2023-03-13T14:22:53;21.00;99.90
6690;DHT22;3382;51.576;8.076;2023-03-13T14:25:20;21.00;99.90
6690;DHT22;3382;51.576;8.076;2023-03-13T14:27:47;21.00;99.90
6690;DHT22;3382;51.576;8.076;2023-03-13T14:30:17;20.90;99.90
6690;DHT22;3382;51.576;8.076;2023-03-13T14:32:43;20.80;99.90
6690;DHT22;3382;51.576;8.076;2023-03-13T14:35:12;20.80;99.90
6690;DHT22;3382;51.576;8.076;2023-03-13T14:37:43;20.80;99.90
6690;DHT22;3382;51.576;8.076;2023-03-13T14:40:29;20.70;99.90
6690;DHT22;3382;51.576;8.076;2023-03-13T14:43:00;20.60;99.90
6690;DHT22;3382;51.576;8.076;2023-03-13T14:45:32;20.40;99.90
6690;DHT22;3382;51.576;8.076;2023-03-13T14:48:03;20.40;99.90
6690;DHT22;3382;51.576;8.076;2023-03-13T14:50:29;20.30;99.90
6690;DHT22;3382;51.576;8.076;2023-03-13T14:53:03;20.20;99.90
6690;DHT22;3382;51.576;8.076;2023-03-13T14:55:35;20.20;99.90
6690;DHT22;3382;51.576;8.076;2023-03-13T14:58:24;20.20;99.90
6690;DHT22;3382;51.576;8.076;2023-03-13T15:00:51;20.20;99.90
6690;DHT22;3382;51.576;8.076;2023-03-13T15:05:47;20.30;99.90
6690;DHT22;3382;51.576;8.076;2023-03-13T15:08:15;20.30;99.90
6690;DHT22;3382;51.576;8.076;2023-03-13T15:10:42;20.30;99.90
6690;DHT22;3382;51.576;8.076;2023-03-13T15:13:26;20.30;99.90
6690;DHT22;3382;51.576;8.076;2023-03-13T15:15:54;20.30;99.90
6690;DHT22;3382;51.576;8.076;2023-03-13T15:18:40;20.40;99.90
6690;DHT22;3382;51.576;8.076;2023-03-13T15:23:39;20.50;99.90
6690;DHT22;3382;51.576;8.076;2023-03-13T15:26:05;20.60;99.90
6690;DHT22;3382;51.576;8.076;2023-03-13T15:28:31;20.60;99.90
6690;DHT22;3382;51.576;8.076;2023-03-13T15:30:57;20.60;99.90
6690;DHT22;3382;51.576;8.076;2023-03-13T15:33:26;20.70;99.90
6690;DHT22;3382;51.576;8.076;2023-03-13T15:35:53;20.70;99.90
6690;DHT22;3382;51.576;8.076;2023-03-13T15:38:21;20.60;99.90
6690;DHT22;3382;51.576;8.076;2023-03-13T15:40:47;20.50;99.90
6690;DHT22;3382;51.576;8.076;2023-03-13T15:43:14;20.50;99.90
6690;DHT22;3382;51.576;8.076;2023-03-13T15:45:41;20.60;99.90
6690;DHT22;3382;51.576;8.076;2023-03-13T15:48:14;20.50;99.90
6690;DHT22;3382;51.576;8.076;2023-03-13T15:50:41;20.40;99.90
6690;DHT22;3382;51.576;8.076;2023-03-13T15:53:17;20.40;99.90
6690;DHT22;3382;51.576;8.076;2023-03-13T15:55:44;20.40;99.90
6690;DHT22;3382;51.576;8.076;2023-03-13T15:58:10;20.60;99.90
6690;DHT22;3382;51.576;8.076;2023-03-13T16:00:36;20.80;99.90
6690;DHT22;3382;51.576;8.076;2023-03-13T16:03:02;20.90;99.90
6690;DHT22;3382;51.576;8.076;2023-03-13T16:05:27;20.80;99.90
6690;DHT22;3382;51.576;8.076;2023-03-13T16:07:54;20.80;99.90
6690;DHT22;3382;51.576;8.076;2023-03-13T16:10:25;20.80;99.90
6690;DHT22;3382;51.576;8.076;2023-03-13T16:12:52;20.90;99.90
6690;DHT22;3382;51.576;8.076;2023-03-13T16:15:18;20.90;99.90
6690;DHT22;3382;51.576;8.076;2023-03-13T16:17:44;21.00;99.90
6690;DHT22;3382;51.576;8.076;2023-03-13T16:20:18;21.00;99.90
6690;DHT22;3382;51.576;8.076;2023-03-13T16:22:45;21.20;99.90
6690;DHT22;3382;51.576;8.076;2023-03-13T16:25:11;21.30;99.90
6690;DHT22;3382;51.576;8.076;2023-03-13T16:27:37;21.40;99.90
6690;DHT22;3382;51.576;8.076;2023-03-13T16:32:38;21.60;99.90
6690;DHT22;3382;51.576;8.076;2023-03-13T16:35:04;21.70;99.90
6690;DHT22;3382;51.576;8.076;2023-03-13T16:37:29;21.80;99.90
6690;DHT22;3382;51.576;8.076;2023-03-13T16:39:55;21.70;99.90
6690;DHT22;3382;51.576;8.076;2023-03-13T16:42:20;21.80;99.90
6690;DHT22;3382;51.576;8.076;2023-03-13T16:44:46;21.80;99.90
6690;DHT22;3382;51.576;8.076;2023-03-13T16:47:27;21.80;99.90
6690;DHT22;3382;51.576;8.076;2023-03-13T16:49:53;21.90;99.90
6690;DHT22;3382;51.576;8.076;2023-03-13T16:52:19;21.90;99.90
6690;DHT22;3382;51.576;8.076;2023-03-13T16:54:45;21.90;99.90
6690;DHT22;3382;51.576;8.076;2023-03-13T16:57:12;21.90;99.90
6690;DHT22;3382;51.576;8.076;2023-03-13T16:59:38;21.90;99.90
6690;DHT22;3382;51.576;8.076;2023-03-13T17:02:05;21.90;99.90
6690;DHT22;3382;51.576;8.076;2023-03-13T17:04:37;21.80;99.90
6690;DHT22;3382;51.576;8.076;2023-03-13T17:07:04;21.80;99.90
6690;DHT22;3382;51.576;8.076;2023-03-13T17:09:30;21.80;99.90
6690;DHT22;3382;51.576;8.076;2023-03-13T17:11:57;21.90;99.90
6690;DHT22;3382;51.576;8.076;2023-03-13T17:14:23;22.00;99.90
6690;DHT22;3382;51.576;8.076;2023-03-13T17:16:49;22.00;99.90
6690;DHT22;3382;51.576;8.076;2023-03-13T17:19:15;22.00;99.90
6690;DHT22;3382;51.576;8.076;2023-03-13T17:21:41;21.90;99.90
6690;DHT22;3382;51.576;8.076;2023-03-13T17:24:07;21.90;99.90
6690;DHT22;3382;51.576;8.076;2023-03-13T17:26:38;22.00;99.90
6690;DHT22;3382;51.576;8.076;2023-03-13T17:29:05;22.10;99.90
6690;DHT22;3382;51.576;8.076;2023-03-13T17:31:31;22.10;99.90
6690;DHT22;3382;51.576;8.076;2023-03-13T17:34:08;22.10;99.90
6690;DHT22;3382;51.576;8.076;2023-03-13T17:36:34;21.60;99.90
6690;DHT22;3382;51.576;8.076;2023-03-13T17:39:05;20.80;99.90
6690;DHT22;3382;51.576;8.076;2023-03-13T17:41:32;20.00;99.90
6690;DHT22;3382;51.576;8.076;2023-03-13T17:43:58;19.40;99.90
6690;DHT22;3382;51.576;8.076;2023-03-13T17:46:33;18.90;99.90
6690;DHT22;3382;51.576;8.076;2023-03-13T17:48:59;18.60;99.90
6690;DHT22;3382;51.576;8.076;2023-03-13T17:51:27;18.30;99.90
6690;DHT22;3382;51.576;8.076;2023-03-13T17:53:54;18.00;99.90
6690;DHT22;3382;51.576;8.076;2023-03-13T17:56:20;17.90;99.90
6690;DHT22;3382;51.576;8.076;2023-03-13T17:58:47;17.70;99.90
6690;DHT22;3382;51.576;8.076;2023-03-13T18:01:15;17.70;99.90
6690;DHT22;3382;51.576;8.076;2023-03-13T18:03:43;17.60;99.90
6690;DHT22;3382;51.576;8.076;2023-03-13T18:06:34;17.40;99.90
6690;DHT22;3382;51.576;8.076;2023-03-13T18:09:02;17.30;99.90
6690;DHT22;3382;51.576;8.076;2023-03-13T18:11:33;17.20;99.90
6690;DHT22;3382;51.576;8.076;2023-03-13T18:14:00;17.10;99.90